sensor_id;sensor_type;location;lat;lon;timestamp;temperature;humidity
5364;DHT22;2705;41.410;2.160;2024-02-26T00:00:03;14.40;99.90
5364;DHT22;2705;41.410;2.160;2024-02-26T00:02:36;14.30;99.90
5364;DHT22;2705;41.410;2.160;2024-02-26T00:05:05;14.40;99.90
5364;DHT22;2705;41.410;2.160;2024-02-26T00:07:34;14.50;99.90
5364;DHT22;2705;41.410;2.160;2024-02-26T00:10:05;14.40;99.90
5364;DHT22;2705;41.410;2.160;2024-02-26T00:12:33;14.40;99.90
5364;DHT22;2705;41.410;2.160;2024-02-26T00:15:02;14.40;99.90
5364;DHT22;2705;41.410;2.160;2024-02-26T00:17:31;14.40;99.90
5364;DHT22;2705;41.410;2.160;2024-02-26T00:20:00;14.40;99.90
5364;DHT22;2705;41.410;2.160;2024-02-26T00:22:31;14.30;99.90
5364;DHT22;2705;41.410;2.160;2024-02-26T00:25:00;14.40;99.90
5364;DHT22;2705;41.410;2.160;2024-02-26T00:27:30;14.50;99.90
5364;DHT22;2705;41.410;2.160;2024-02-26T00:29:59;14.60;99.90
5364;DHT22;2705;41.410;2.160;2024-02-26T00:32:28;14.70;99.90
5364;DHT22;2705;41.410;2.160;2024-02-26T00:34:56;14.90;99.90
5364;DHT22;2705;41.410;2.160;2024-02-26T00:37:25;15.00;99.90
5364;DHT22;2705;41.410;2.160;2024-02-26T00:39:54;15.10;99.90
5364;DHT22;2705;41.410;2.160;2024-02-26T00:42:23;15.20;99.90
5364;DHT22;2705;41.410;2.160;2024-02-26T00:44:53;15.20;99.90
5364;DHT22;2705;41.410;2.160;2024-02-26T00:47:21;15.20;99.90
5364;DHT22;2705;41.410;2.160;2024-02-26T00:49:50;15.20;99.90
5364;DHT22;2705;41.410;2.160;2024-02-26T00:52:19;15.10;99.90
5364;DHT22;2705;41.410;2.160;2024-02-26T00:54:47;15.20;99.90
5364;DHT22;2705;41.410;2.160;2024-02-26T00:57:16;15.10;99.90
5364;DHT22;2705;41.410;2.160;2024-02-26T00:59:45;15.10;99.90
5364;DHT22;2705;41.410;2.160;2024-02-26T01:02:15;15.10;99.90
5364;DHT22;2705;41.410;2.160;2024-02-26T01:04:43;15.00;99.90
5364;DHT22;2705;41.410;2.160;2024-02-26T01:07:15;15.00;99.90
5364;DHT22;2705;41.410;2.160;2024-02-26T01:09:44;15.10;99.90
5364;DHT22;2705;41.410;2.160;2024-02-26T01:12:13;15.10;99.90
5364;DHT22;2705;41.410;2.160;2024-02-26T01:14:42;15.10;99.90
5364;DHT22;2705;41.410;2.160;2024-02-26T01:17:11;15.10;99.90
5364;DHT22;2705;41.410;2.160;2024-02-26T01:19:41;15.10;99.90
5364;DHT22;2705;41.410;2.160;2024-02-26T01:22:10;15.10;99.90
5364;DHT22;2705;41.410;2.160;2024-02-26T01:24:38;15.10;99.90
5364;DHT22;2705;41.410;2.160;2024-02-26T01:27:07;15.10;99.90
5364;DHT22;2705;41.410;2.160;2024-02-26T01:29:36;15.10;99.90
5364;DHT22;2705;41.410;2.160;2024-02-26T01:32:05;15.20;99.90
5364;DHT22;2705;41.410;2.160;2024-02-26T01:34:34;15.20;99.90
5364;DHT22;2705;41.410;2.160;2024-02-26T01:37:06;15.30;99.90
5364;DHT22;2705;41.410;2.160;2024-02-26T01:39:34;15.30;99.90
5364;DHT22;2705;41.410;2.160;2024-02-26T01:42:03;15.30;99.90
5364;DHT22;2705;41.410;2.160;2024-02-26T01:44:32;15.40;99.90
5364;DHT22;2705;41.410;2.160;2024-02-26T01:47:00;15.40;99.90
5364;DHT22;2705;41.410;2.160;2024-02-26T01:49:30;15.40;99.90
5364;DHT22;2705;41.410;2.160;2024-02-26T01:51:59;15.50;99.90
5364;DHT22;2705;41.410;2.160;2024-02-26T01:54:30;15.60;99.90
5364;DHT22;2705;41.410;2.160;2024-02-26T01:56:59;15.60;99.90
5364;DHT22;2705;41.410;2.160;2024-02-26T01:59:27;15.60;99.90
5364;DHT22;2705;41.410;2.160;2024-02-26T02:01:57;15.60;99.90
5364;DHT22;2705;41.410;2.160;2024-02-26T02:04:26;15.70;99.90
5364;DHT22;2705;41.410;2.160;2024-02-26T02:06:55;15.50;99.90
5364;DHT22;2705;41.410;2.160;2024-02-26T02:09:24;15.50;99.90
5364;DHT22;2705;41.410;2.160;2024-02-26T02:11:54;15.50;99.90
5364;DHT22;2705;41.410;2.160;2024-02-26T02:14:22;15.40;99.90
5364;DHT22;2705;41.410;2.160;2024-02-26T02:16:52;15.40;99.90
5364;DHT22;2705;41.410;2.160;2024-02-26T02:19:20;15.30;99.90
5364;DHT22;2705;41.410;2.160;2024-02-26T02:21:50;15.20;99.90
5364;DHT22;2705;41.410;2.160;2024-02-26T02:24:19;15.10;99.90
5364;DHT22;2705;41.410;2.160;2024-02-26T02:26:48;15.10;99.90
5364;DHT22;2705;41.410;2.160;2024-02-26T02:29:16;15.10;99.90
5364;DHT22;2705;41.410;2.160;2024-02-26T02:31:45;15.10;99.90
5364;DHT22;2705;41.410;2.160;2024-02-26T02:34:14;15.10;99.90
5364;DHT22;2705;41.410;2.160;2024-02-26T02:36:51;15.10;99.90
5364;DHT22;2705;41.410;2.160;2024-02-26T02:39:20;15.20;99.90
5364;DHT22;2705;41.410;2.160;2024-02-26T02:41:49;15.20;99.90
5364;DHT22;2705;41.410;2.160;2024-02-26T02:44:18;15.30;99.90
5364;DHT22;2705;41.410;2.160;2024-02-26T02:46:46;15.30;99.90
5364;DHT22;2705;41.410;2.160;2024-02-26T02:49:15;15.30;99.90
5364;DHT22;2705;41.410;2.160;2024-02-26T02:51:44;15.20;99.90
5364;DHT22;2705;41.410;2.160;2024-02-26T02:54:14;15.20;99.90
5364;DHT22;2705;41.410;2.160;2024-02-26T02:56:43;15.10;99.90
5364;DHT22;2705;41.410;2.160;2024-02-26T02:59:12;15.10;99.90
5364;DHT22;2705;41.410;2.160;2024-02-26T03:01:40;15.10;99.90
5364;DHT22;2705;41.410;2.160;2024-02-26T03:04:09;15.20;99.90
5364;DHT22;2705;41.410;2.160;2024-02-26T03:06:38;15.10;99.90
5364;DHT22;2705;41.410;2.160;2024-02-26T03:09:07;14.90;99.90
5364;DHT22;2705;41.410;2.160;2024-02-26T03:11:37;15.00;99.90
5364;DHT22;2705;41.410;2.160;2024-02-26T03:14:07;14.90;99.90
5364;DHT22;2705;41.410;2.160;2024-02-26T03:16:36;14.80;99.90
5364;DHT22;2705;41.410;2.160;2024-02-26T03:19:05;14.80;99.90
5364;DHT22;2705;41.410;2.160;2024-02-26T03:21:34;14.60;99.90
5364;DHT22;2705;41.410;2.160;2024-02-26T03:24:03;14.70;99.90
5364;DHT22;2705;41.410;2.160;2024-02-26T03:26:32;14.70;99.90
5364;DHT22;2705;41.410;2.160;2024-02-26T03:29:02;14.70;99.90
5364;DHT22;2705;41.410;2.160;2024-02-26T03:31:31;14.80;99.90
5364;DHT22;2705;41.410;2.160;2024-02-26T03:33:59;14.90;99.90
5364;DHT22;2705;41.410;2.160;2024-02-26T03:36:28;14.80;99.90
5364;DHT22;2705;41.410;2.160;2024-02-26T03:38:57;14.80;99.90
5364;DHT22;2705;41.410;2.160;2024-02-26T03:41:26;14.70;99.90
5364;DHT22;2705;41.410;2.160;2024-02-26T03:43:54;14.60;99.90
5364;DHT22;2705;41.410;2.160;2024-02-26T03:46:25;14.60;99.90
5364;DHT22;2705;41.410;2.160;2024-02-26T03:48:53;14.40;99.90
5364;DHT22;2705;41.410;2.160;2024-02-26T03:51:22;14.40;99.90
5364;DHT22;2705;41.410;2.160;2024-02-26T03:53:51;14.40;99.90
5364;DHT22;2705;41.410;2.160;2024-02-26T03:56:20;14.40;99.90
5364;DHT22;2705;41.410;2.160;2024-02-26T03:58:49;14.50;99.90
5364;DHT22;2705;41.410;2.160;2024-02-26T04:01:18;14.50;99.90
5364;DHT22;2705;41.410;2.160;2024-02-26T04:03:48;14.40;99.90
5364;DHT22;2705;41.410;2.160;2024-02-26T04:06:17;14.30;99.90
5364;DHT22;2705;41.410;2.160;2024-02-26T04:08:48;14.30;99.90
5364;DHT22;2705;41.410;2.160;2024-02-26T04:11:17;14.30;99.90
5364;DHT22;2705;41.410;2.160;2024-02-26T04:13:46;14.40;99.90
5364;DHT22;2705;41.410;2.160;2024-02-26T04:16:18;14.30;99.90
5364;DHT22;2705;41.410;2.160;2024-02-26T04:18:48;14.50;99.90
5364;DHT22;2705;41.410;2.160;2024-02-26T04:21:17;14.60;99.90
5364;DHT22;2705;41.410;2.160;2024-02-26T04:23:45;14.50;99.90
5364;DHT22;2705;41.410;2.160;2024-02-26T04:26:16;14.30;99.90
5364;DHT22;2705;41.410;2.160;2024-02-26T04:28:45;14.30;99.90
5364;DHT22;2705;41.410;2.160;2024-02-26T04:31:13;14.30;99.90
5364;DHT22;2705;41.410;2.160;2024-02-26T04:33:42;14.00;99.90
5364;DHT22;2705;41.410;2.160;2024-02-26T04:36:14;14.00;99.90
5364;DHT22;2705;41.410;2.160;2024-02-26T04:38:43;14.00;99.90
5364;DHT22;2705;41.410;2.160;2024-02-26T04:41:12;14.10;99.90
5364;DHT22;2705;41.410;2.160;2024-02-26T04:43:40;14.10;99.90
5364;DHT22;2705;41.410;2.160;2024-02-26T04:46:09;14.10;99.90
5364;DHT22;2705;41.410;2.160;2024-02-26T04:48:38;14.20;99.90
5364;DHT22;2705;41.410;2.160;2024-02-26T04:51:09;14.40;99.90
5364;DHT22;2705;41.410;2.160;2024-02-26T04:53:39;14.40;99.90
5364;DHT22;2705;41.410;2.160;2024-02-26T04:56:08;14.30;99.90
5364;DHT22;2705;41.410;2.160;2024-02-26T04:58:36;14.30;99.90
5364;DHT22;2705;41.410;2.160;2024-02-26T05:01:07;14.10;99.90
5364;DHT22;2705;41.410;2.160;2024-02-26T05:03:37;14.00;99.90
5364;DHT22;2705;41.410;2.160;2024-02-26T05:06:06;14.00;99.90
5364;DHT22;2705;41.410;2.160;2024-02-26T05:08:36;14.10;99.90
5364;DHT22;2705;41.410;2.160;2024-02-26T05:11:07;14.00;99.90
5364;DHT22;2705;41.410;2.160;2024-02-26T05:13:36;14.10;99.90
5364;DHT22;2705;41.410;2.160;2024-02-26T05:16:04;14.00;99.90
5364;DHT22;2705;41.410;2.160;2024-02-26T05:18:33;14.00;99.90
5364;DHT22;2705;41.410;2.160;2024-02-26T05:21:02;14.10;99.90
5364;DHT22;2705;41.410;2.160;2024-02-26T05:23:31;13.90;99.90
5364;DHT22;2705;41.410;2.160;2024-02-26T05:26:00;13.70;99.90
5364;DHT22;2705;41.410;2.160;2024-02-26T05:28:30;13.60;99.90
5364;DHT22;2705;41.410;2.160;2024-02-26T05:30:59;13.70;99.90
5364;DHT22;2705;41.410;2.160;2024-02-26T05:33:27;13.70;99.90
5364;DHT22;2705;41.410;2.160;2024-02-26T05:35:56;13.50;99.90
5364;DHT22;2705;41.410;2.160;2024-02-26T05:38:31;13.40;99.90
5364;DHT22;2705;41.410;2.160;2024-02-26T05:41:00;13.50;99.90
5364;DHT22;2705;41.410;2.160;2024-02-26T05:43:30;13.40;99.90
5364;DHT22;2705;41.410;2.160;2024-02-26T05:45:59;13.40;99.90
5364;DHT22;2705;41.410;2.160;2024-02-26T05:48:27;13.50;99.90
5364;DHT22;2705;41.410;2.160;2024-02-26T05:50:56;13.30;99.90
5364;DHT22;2705;41.410;2.160;2024-02-26T05:53:25;13.20;99.90
5364;DHT22;2705;41.410;2.160;2024-02-26T05:55:54;13.30;99.90
5364;DHT22;2705;41.410;2.160;2024-02-26T05:58:22;13.20;99.90
5364;DHT22;2705;41.410;2.160;2024-02-26T06:00:52;13.20;99.90
5364;DHT22;2705;41.410;2.160;2024-02-26T06:03:21;13.40;99.90
5364;DHT22;2705;41.410;2.160;2024-02-26T06:05:50;13.30;99.90
5364;DHT22;2705;41.410;2.160;2024-02-26T06:08:19;13.40;99.90
5364;DHT22;2705;41.410;2.160;2024-02-26T06:10:48;13.30;99.90
5364;DHT22;2705;41.410;2.160;2024-02-26T06:13:16;13.30;99.90
5364;DHT22;2705;41.410;2.160;2024-02-26T06:15:45;13.30;99.90
5364;DHT22;2705;41.410;2.160;2024-02-26T06:18:15;13.30;99.90
5364;DHT22;2705;41.410;2.160;2024-02-26T06:20:44;13.70;99.90
5364;DHT22;2705;41.410;2.160;2024-02-26T06:23:13;13.80;99.90
5364;DHT22;2705;41.410;2.160;2024-02-26T06:25:42;13.60;99.90
5364;DHT22;2705;41.410;2.160;2024-02-26T06:28:11;13.60;99.90
5364;DHT22;2705;41.410;2.160;2024-02-26T06:30:39;13.50;99.90
5364;DHT22;2705;41.410;2.160;2024-02-26T06:33:08;13.40;99.90
5364;DHT22;2705;41.410;2.160;2024-02-26T06:35:39;13.40;99.90
5364;DHT22;2705;41.410;2.160;2024-02-26T06:38:09;13.50;99.90
5364;DHT22;2705;41.410;2.160;2024-02-26T06:40:40;13.70;99.90
5364;DHT22;2705;41.410;2.160;2024-02-26T06:43:08;13.70;99.90
5364;DHT22;2705;41.410;2.160;2024-02-26T06:45:37;13.60;99.90
5364;DHT22;2705;41.410;2.160;2024-02-26T06:48:06;13.60;99.90
5364;DHT22;2705;41.410;2.160;2024-02-26T06:50:35;13.60;99.90
5364;DHT22;2705;41.410;2.160;2024-02-26T06:53:05;13.80;99.90
5364;DHT22;2705;41.410;2.160;2024-02-26T06:55:34;14.00;99.90
5364;DHT22;2705;41.410;2.160;2024-02-26T06:58:04;14.10;99.90
5364;DHT22;2705;41.410;2.160;2024-02-26T07:00:33;14.00;99.90
5364;DHT22;2705;41.410;2.160;2024-02-26T07:03:02;13.80;99.90
5364;DHT22;2705;41.410;2.160;2024-02-26T07:05:31;13.80;99.90
5364;DHT22;2705;41.410;2.160;2024-02-26T07:07:59;13.90;99.90
5364;DHT22;2705;41.410;2.160;2024-02-26T07:10:30;13.90;99.90
5364;DHT22;2705;41.410;2.160;2024-02-26T07:12:58;13.90;99.90
5364;DHT22;2705;41.410;2.160;2024-02-26T07:15:27;13.90;99.90
5364;DHT22;2705;41.410;2.160;2024-02-26T07:17:56;14.10;99.90
5364;DHT22;2705;41.410;2.160;2024-02-26T07:20:30;14.10;99.90
5364;DHT22;2705;41.410;2.160;2024-02-26T07:22:59;14.00;99.90
5364;DHT22;2705;41.410;2.160;2024-02-26T07:25:27;14.10;99.90
5364;DHT22;2705;41.410;2.160;2024-02-26T07:27:58;14.20;99.90
5364;DHT22;2705;41.410;2.160;2024-02-26T07:30:26;14.30;99.90
5364;DHT22;2705;41.410;2.160;2024-02-26T07:32:55;14.30;99.90
5364;DHT22;2705;41.410;2.160;2024-02-26T07:35:24;14.30;99.90
5364;DHT22;2705;41.410;2.160;2024-02-26T07:37:54;14.30;99.90
5364;DHT22;2705;41.410;2.160;2024-02-26T07:40:23;14.40;99.90
5364;DHT22;2705;41.410;2.160;2024-02-26T07:42:52;14.30;99.90
5364;DHT22;2705;41.410;2.160;2024-02-26T07:45:23;14.40;99.90
5364;DHT22;2705;41.410;2.160;2024-02-26T07:47:51;14.50;99.90
5364;DHT22;2705;41.410;2.160;2024-02-26T07:50:20;14.40;99.90
5364;DHT22;2705;41.410;2.160;2024-02-26T07:52:49;14.40;99.90
5364;DHT22;2705;41.410;2.160;2024-02-26T07:55:20;14.20;99.90
5364;DHT22;2705;41.410;2.160;2024-02-26T07:57:50;14.40;99.90
5364;DHT22;2705;41.410;2.160;2024-02-26T08:00:19;14.40;99.90
5364;DHT22;2705;41.410;2.160;2024-02-26T08:02:49;14.40;99.90
5364;DHT22;2705;41.410;2.160;2024-02-26T08:05:18;14.40;99.90
5364;DHT22;2705;41.410;2.160;2024-02-26T08:07:46;14.60;99.90
5364;DHT22;2705;41.410;2.160;2024-02-26T08:10:16;14.70;99.90
5364;DHT22;2705;41.410;2.160;2024-02-26T08:12:45;14.70;99.90
5364;DHT22;2705;41.410;2.160;2024-02-26T08:15:13;14.70;99.90
5364;DHT22;2705;41.410;2.160;2024-02-26T08:17:42;14.90;99.90
5364;DHT22;2705;41.410;2.160;2024-02-26T08:20:13;14.70;99.90
5364;DHT22;2705;41.410;2.160;2024-02-26T08:22:42;14.90;99.90
5364;DHT22;2705;41.410;2.160;2024-02-26T08:25:10;14.90;99.90
5364;DHT22;2705;41.410;2.160;2024-02-26T08:27:39;14.90;99.90
5364;DHT22;2705;41.410;2.160;2024-02-26T08:30:09;14.90;99.90
5364;DHT22;2705;41.410;2.160;2024-02-26T08:32:41;14.90;99.90
5364;DHT22;2705;41.410;2.160;2024-02-26T08:35:09;14.90;99.90
5364;DHT22;2705;41.410;2.160;2024-02-26T08:37:40;14.90;99.90
5364;DHT22;2705;41.410;2.160;2024-02-26T08:40:09;14.80;99.90
5364;DHT22;2705;41.410;2.160;2024-02-26T08:42:38;14.80;99.90
5364;DHT22;2705;41.410;2.160;2024-02-26T08:45:07;14.80;99.90
5364;DHT22;2705;41.410;2.160;2024-02-26T08:47:36;14.80;99.90
5364;DHT22;2705;41.410;2.160;2024-02-26T08:50:05;14.80;99.90
5364;DHT22;2705;41.410;2.160;2024-02-26T08:52:36;14.70;99.90
5364;DHT22;2705;41.410;2.160;2024-02-26T08:55:07;14.80;99.90
5364;DHT22;2705;41.410;2.160;2024-02-26T08:57:36;14.90;99.90
5364;DHT22;2705;41.410;2.160;2024-02-26T09:00:06;15.00;99.90
5364;DHT22;2705;41.410;2.160;2024-02-26T09:02:35;14.90;99.90
5364;DHT22;2705;41.410;2.160;2024-02-26T09:05:06;15.00;99.90
5364;DHT22;2705;41.410;2.160;2024-02-26T09:07:34;15.00;99.90
5364;DHT22;2705;41.410;2.160;2024-02-26T09:10:04;15.00;99.90
5364;DHT22;2705;41.410;2.160;2024-02-26T09:12:34;15.10;99.90
5364;DHT22;2705;41.410;2.160;2024-02-26T09:15:03;15.20;99.90
5364;DHT22;2705;41.410;2.160;2024-02-26T09:17:32;15.20;99.90
5364;DHT22;2705;41.410;2.160;2024-02-26T09:20:01;15.20;99.90
5364;DHT22;2705;41.410;2.160;2024-02-26T09:22:31;15.20;99.90
5364;DHT22;2705;41.410;2.160;2024-02-26T09:25:00;15.30;99.90
5364;DHT22;2705;41.410;2.160;2024-02-26T09:27:29;15.30;99.90
5364;DHT22;2705;41.410;2.160;2024-02-26T09:30:00;15.30;99.90
5364;DHT22;2705;41.410;2.160;2024-02-26T09:32:30;15.30;99.90
5364;DHT22;2705;41.410;2.160;2024-02-26T09:34:59;15.30;99.90
5364;DHT22;2705;41.410;2.160;2024-02-26T09:37:28;15.30;99.90
5364;DHT22;2705;41.410;2.160;2024-02-26T09:39:56;15.50;99.90
5364;DHT22;2705;41.410;2.160;2024-02-26T09:42:26;15.70;99.90
5364;DHT22;2705;41.410;2.160;2024-02-26T09:44:55;15.80;99.90
5364;DHT22;2705;41.410;2.160;2024-02-26T09:47:25;15.80;99.90
5364;DHT22;2705;41.410;2.160;2024-02-26T09:49:55;15.80;99.90
5364;DHT22;2705;41.410;2.160;2024-02-26T09:52:25;15.60;99.90
5364;DHT22;2705;41.410;2.160;2024-02-26T09:54:54;15.50;99.90
5364;DHT22;2705;41.410;2.160;2024-02-26T09:57:22;15.70;99.90
5364;DHT22;2705;41.410;2.160;2024-02-26T09:59:53;15.70;99.90
5364;DHT22;2705;41.410;2.160;2024-02-26T10:02:22;15.70;99.90
5364;DHT22;2705;41.410;2.160;2024-02-26T10:04:52;15.60;99.90
5364;DHT22;2705;41.410;2.160;2024-02-26T10:07:23;15.80;99.90
5364;DHT22;2705;41.410;2.160;2024-02-26T10:09:52;15.80;99.90
5364;DHT22;2705;41.410;2.160;2024-02-26T10:12:21;15.90;99.90
5364;DHT22;2705;41.410;2.160;2024-02-26T10:14:50;15.90;99.90
5364;DHT22;2705;41.410;2.160;2024-02-26T10:17:19;16.10;99.90
5364;DHT22;2705;41.410;2.160;2024-02-26T10:19:48;16.10;99.90
5364;DHT22;2705;41.410;2.160;2024-02-26T10:22:20;16.20;99.90
5364;DHT22;2705;41.410;2.160;2024-02-26T10:24:50;16.30;99.90
5364;DHT22;2705;41.410;2.160;2024-02-26T10:27:19;16.30;99.90
5364;DHT22;2705;41.410;2.160;2024-02-26T10:29:48;16.30;99.90
5364;DHT22;2705;41.410;2.160;2024-02-26T10:32:19;16.40;99.90
5364;DHT22;2705;41.410;2.160;2024-02-26T10:34:48;16.30;99.90
5364;DHT22;2705;41.410;2.160;2024-02-26T10:37:16;16.40;99.90
5364;DHT22;2705;41.410;2.160;2024-02-26T10:39:47;16.50;99.90
5364;DHT22;2705;41.410;2.160;2024-02-26T10:42:16;16.50;99.90
5364;DHT22;2705;41.410;2.160;2024-02-26T10:44:47;16.60;99.90
5364;DHT22;2705;41.410;2.160;2024-02-26T10:47:16;16.70;99.90
5364;DHT22;2705;41.410;2.160;2024-02-26T10:49:45;16.50;99.90
5364;DHT22;2705;41.410;2.160;2024-02-26T10:52:15;16.50;99.90
5364;DHT22;2705;41.410;2.160;2024-02-26T10:54:43;16.70;99.90
5364;DHT22;2705;41.410;2.160;2024-02-26T10:57:18;16.60;99.90
5364;DHT22;2705;41.410;2.160;2024-02-26T10:59:47;16.80;99.90
5364;DHT22;2705;41.410;2.160;2024-02-26T11:02:16;16.90;99.90
5364;DHT22;2705;41.410;2.160;2024-02-26T11:04:45;16.90;99.90
5364;DHT22;2705;41.410;2.160;2024-02-26T11:07:15;17.20;99.90
5364;DHT22;2705;41.410;2.160;2024-02-26T11:09:44;17.20;99.90
5364;DHT22;2705;41.410;2.160;2024-02-26T11:12:20;17.30;99.90
5364;DHT22;2705;41.410;2.160;2024-02-26T11:14:51;17.30;99.90
5364;DHT22;2705;41.410;2.160;2024-02-26T11:17:22;17.20;99.90
5364;DHT22;2705;41.410;2.160;2024-02-26T11:19:53;17.30;99.90
5364;DHT22;2705;41.410;2.160;2024-02-26T11:22:24;17.30;99.90
5364;DHT22;2705;41.410;2.160;2024-02-26T11:24:53;17.30;99.90
5364;DHT22;2705;41.410;2.160;2024-02-26T11:27:27;17.30;99.90
5364;DHT22;2705;41.410;2.160;2024-02-26T11:29:58;17.30;99.90
5364;DHT22;2705;41.410;2.160;2024-02-26T11:32:28;17.40;99.90
5364;DHT22;2705;41.410;2.160;2024-02-26T11:34:58;17.50;99.90
5364;DHT22;2705;41.410;2.160;2024-02-26T11:37:27;17.20;99.90
5364;DHT22;2705;41.410;2.160;2024-02-26T11:39:58;17.30;99.90
5364;DHT22;2705;41.410;2.160;2024-02-26T11:42:30;17.50;99.90
5364;DHT22;2705;41.410;2.160;2024-02-26T11:45:00;17.50;99.90
5364;DHT22;2705;41.410;2.160;2024-02-26T11:47:29;17.50;99.90
5364;DHT22;2705;41.410;2.160;2024-02-26T11:49:58;17.40;99.90
5364;DHT22;2705;41.410;2.160;2024-02-26T11:52:27;17.50;99.90
5364;DHT22;2705;41.410;2.160;2024-02-26T11:54:56;17.40;99.90
5364;DHT22;2705;41.410;2.160;2024-02-26T11:57:26;17.30;99.90
5364;DHT22;2705;41.410;2.160;2024-02-26T12:00:10;17.30;99.90
5364;DHT22;2705;41.410;2.160;2024-02-26T12:02:40;17.40;99.90
5364;DHT22;2705;41.410;2.160;2024-02-26T12:05:09;17.70;99.90
5364;DHT22;2705;41.410;2.160;2024-02-26T12:07:40;17.90;99.90
5364;DHT22;2705;41.410;2.160;2024-02-26T12:10:15;17.90;99.90
5364;DHT22;2705;41.410;2.160;2024-02-26T12:12:44;17.90;99.80
5364;DHT22;2705;41.410;2.160;2024-02-26T12:15:15;18.10;99.70
5364;DHT22;2705;41.410;2.160;2024-02-26T12:17:48;18.20;99.60
5364;DHT22;2705;41.410;2.160;2024-02-26T12:20:17;18.40;98.80
5364;DHT22;2705;41.410;2.160;2024-02-26T12:22:47;18.40;98.60
5364;DHT22;2705;41.410;2.160;2024-02-26T12:25:20;18.40;98.60
5364;DHT22;2705;41.410;2.160;2024-02-26T12:27:49;18.40;98.30
5364;DHT22;2705;41.410;2.160;2024-02-26T12:30:19;18.50;97.80
5364;DHT22;2705;41.410;2.160;2024-02-26T12:32:48;18.40;97.20
5364;DHT22;2705;41.410;2.160;2024-02-26T12:35:18;18.20;97.00
5364;DHT22;2705;41.410;2.160;2024-02-26T12:37:47;18.20;97.40
5364;DHT22;2705;41.410;2.160;2024-02-26T12:40:16;18.40;98.00
5364;DHT22;2705;41.410;2.160;2024-02-26T12:42:45;18.50;97.70
5364;DHT22;2705;41.410;2.160;2024-02-26T12:45:14;18.40;97.00
5364;DHT22;2705;41.410;2.160;2024-02-26T12:47:45;18.50;97.10
5364;DHT22;2705;41.410;2.160;2024-02-26T12:50:15;18.50;97.20
5364;DHT22;2705;41.410;2.160;2024-02-26T12:52:44;18.30;97.00
5364;DHT22;2705;41.410;2.160;2024-02-26T12:55:14;18.30;96.90
5364;DHT22;2705;41.410;2.160;2024-02-26T12:57:43;18.40;96.80
5364;DHT22;2705;41.410;2.160;2024-02-26T13:00:13;18.40;96.90
5364;DHT22;2705;41.410;2.160;2024-02-26T13:02:42;18.50;96.90
5364;DHT22;2705;41.410;2.160;2024-02-26T13:05:13;18.60;96.90
5364;DHT22;2705;41.410;2.160;2024-02-26T13:07:43;18.60;96.80
5364;DHT22;2705;41.410;2.160;2024-02-26T13:10:12;18.60;97.00
5364;DHT22;2705;41.410;2.160;2024-02-26T13:12:42;18.60;96.90
5364;DHT22;2705;41.410;2.160;2024-02-26T13:15:14;18.50;96.80
5364;DHT22;2705;41.410;2.160;2024-02-26T13:17:44;18.50;96.80
5364;DHT22;2705;41.410;2.160;2024-02-26T13:20:25;18.30;96.60
5364;DHT22;2705;41.410;2.160;2024-02-26T13:23:02;18.50;96.90
5364;DHT22;2705;41.410;2.160;2024-02-26T13:25:30;18.60;96.40
5364;DHT22;2705;41.410;2.160;2024-02-26T13:28:06;18.50;99.90
5364;DHT22;2705;41.410;2.160;2024-02-26T13:30:35;17.90;99.90
5364;DHT22;2705;41.410;2.160;2024-02-26T13:33:07;17.90;99.90
5364;DHT22;2705;41.410;2.160;2024-02-26T13:35:39;17.90;99.90
5364;DHT22;2705;41.410;2.160;2024-02-26T13:38:08;18.00;99.90
5364;DHT22;2705;41.410;2.160;2024-02-26T13:40:38;18.10;99.90
5364;DHT22;2705;41.410;2.160;2024-02-26T13:43:07;18.20;99.90
5364;DHT22;2705;41.410;2.160;2024-02-26T13:45:36;18.10;99.90
5364;DHT22;2705;41.410;2.160;2024-02-26T13:48:06;17.90;99.90
5364;DHT22;2705;41.410;2.160;2024-02-26T13:53:28;18.30;99.90
5364;DHT22;2705;41.410;2.160;2024-02-26T13:56:01;18.40;99.90
5364;DHT22;2705;41.410;2.160;2024-02-26T13:58:32;18.30;99.90
5364;DHT22;2705;41.410;2.160;2024-02-26T14:01:07;18.40;99.90
5364;DHT22;2705;41.410;2.160;2024-02-26T14:03:36;18.20;99.90
5364;DHT22;2705;41.410;2.160;2024-02-26T14:06:05;18.10;99.90
5364;DHT22;2705;41.410;2.160;2024-02-26T14:08:35;17.90;99.90
5364;DHT22;2705;41.410;2.160;2024-02-26T14:11:04;17.60;99.90
5364;DHT22;2705;41.410;2.160;2024-02-26T14:13:33;17.60;99.90
5364;DHT22;2705;41.410;2.160;2024-02-26T14:16:06;17.50;99.90
5364;DHT22;2705;41.410;2.160;2024-02-26T14:18:35;17.30;99.90
5364;DHT22;2705;41.410;2.160;2024-02-26T14:21:04;17.60;99.90
5364;DHT22;2705;41.410;2.160;2024-02-26T14:23:33;17.80;99.90
5364;DHT22;2705;41.410;2.160;2024-02-26T14:26:03;17.80;99.90
5364;DHT22;2705;41.410;2.160;2024-02-26T14:28:32;17.90;99.90
5364;DHT22;2705;41.410;2.160;2024-02-26T14:31:03;17.80;99.90
5364;DHT22;2705;41.410;2.160;2024-02-26T14:33:33;17.80;99.90
5364;DHT22;2705;41.410;2.160;2024-02-26T14:36:02;18.10;99.90
5364;DHT22;2705;41.410;2.160;2024-02-26T14:38:31;17.80;99.90
5364;DHT22;2705;41.410;2.160;2024-02-26T14:40:59;17.90;99.90
5364;DHT22;2705;41.410;2.160;2024-02-26T14:43:30;18.10;99.90
5364;DHT22;2705;41.410;2.160;2024-02-26T14:45:59;18.10;99.90
5364;DHT22;2705;41.410;2.160;2024-02-26T14:48:27;17.90;99.90
5364;DHT22;2705;41.410;2.160;2024-02-26T14:50:57;18.10;99.90
5364;DHT22;2705;41.410;2.160;2024-02-26T14:53:26;18.20;99.90
5364;DHT22;2705;41.410;2.160;2024-02-26T14:55:55;18.10;99.90
5364;DHT22;2705;41.410;2.160;2024-02-26T14:58:24;18.30;99.90
5364;DHT22;2705;41.410;2.160;2024-02-26T15:00:54;18.10;99.90
5364;DHT22;2705;41.410;2.160;2024-02-26T15:03:22;18.10;99.90
5364;DHT22;2705;41.410;2.160;2024-02-26T15:05:51;18.40;99.90
5364;DHT22;2705;41.410;2.160;2024-02-26T15:08:20;18.40;99.90
5364;DHT22;2705;41.410;2.160;2024-02-26T15:10:49;18.40;99.90
5364;DHT22;2705;41.410;2.160;2024-02-26T15:13:18;18.20;99.90
5364;DHT22;2705;41.410;2.160;2024-02-26T15:15:46;18.30;99.90
5364;DHT22;2705;41.410;2.160;2024-02-26T15:18:17;18.60;99.90
5364;DHT22;2705;41.410;2.160;2024-02-26T15:20:45;18.40;99.90
5364;DHT22;2705;41.410;2.160;2024-02-26T15:23:14;18.20;99.90
5364;DHT22;2705;41.410;2.160;2024-02-26T15:25:44;18.10;99.90
5364;DHT22;2705;41.410;2.160;2024-02-26T15:28:13;17.90;99.90
5364;DHT22;2705;41.410;2.160;2024-02-26T15:30:42;18.50;99.90
5364;DHT22;2705;41.410;2.160;2024-02-26T15:33:11;18.30;99.90
5364;DHT22;2705;41.410;2.160;2024-02-26T15:35:42;17.80;99.90
5364;DHT22;2705;41.410;2.160;2024-02-26T15:38:12;17.70;99.90
5364;DHT22;2705;41.410;2.160;2024-02-26T15:40:41;17.50;99.90
5364;DHT22;2705;41.410;2.160;2024-02-26T15:43:11;17.90;99.90
5364;DHT22;2705;41.410;2.160;2024-02-26T15:45:41;18.00;99.90
5364;DHT22;2705;41.410;2.160;2024-02-26T15:48:10;17.70;99.90
5364;DHT22;2705;41.410;2.160;2024-02-26T15:50:39;17.60;99.90
5364;DHT22;2705;41.410;2.160;2024-02-26T15:53:10;17.80;99.90
5364;DHT22;2705;41.410;2.160;2024-02-26T15:55:40;17.90;99.90
5364;DHT22;2705;41.410;2.160;2024-02-26T15:58:09;17.90;99.90
5364;DHT22;2705;41.410;2.160;2024-02-26T16:00:39;17.90;99.90
5364;DHT22;2705;41.410;2.160;2024-02-26T16:03:08;17.70;99.90
5364;DHT22;2705;41.410;2.160;2024-02-26T16:05:37;17.70;99.90
5364;DHT22;2705;41.410;2.160;2024-02-26T16:08:07;17.80;99.90
5364;DHT22;2705;41.410;2.160;2024-02-26T16:10:40;17.90;99.90
5364;DHT22;2705;41.410;2.160;2024-02-26T16:13:09;17.90;99.90
5364;DHT22;2705;41.410;2.160;2024-02-26T16:15:38;17.90;99.90
5364;DHT22;2705;41.410;2.160;2024-02-26T16:18:07;17.60;99.90